Flight Track Log - Related Links

Times and Time Zones

All times are in EDT time to prevent confusion due to time zone crossing. See the RPA4937 flight status page for this flight to view local times or setup timezone preferences in your user account.

Time Position Orientation Groundspeed Altitude Reporting Facility
EDT Latitude Longitude Course Direction KTS MPH feet Rate Location/Type
Wed 09:33:25 AM 40.7333 -74.1333 37° Northeast 193 222 2,600  Level New York TRACON
Wed 09:35:00 AM 40.9942 -74.1422 North  Level FlightAware Approximate
Wed 09:35:00 AM 40.8543 -73.9844 North  Level Estimated
Wed 09:36:00 AM 41.0984 -74.1335 North  Level FlightAware Approximate
Wed 09:36:25 AM 40.9500 -74.1333 North 290 334 6,000  Level New York TRACON
Wed 09:37:00 AM 41.1650 -74.0660 74° East  Level FlightAware Approximate
Wed 09:38:00 AM 41.1949 -73.9384 37° Northeast  Level FlightAware Approximate
Wed 09:38:03 AM 41.0647 -74.1083 North 279 321 6,000  Level Boston Center
Wed 09:39:03 AM 41.1108 -74.0819 23° Northeast 255 293 6,000 950 Level Boston Center
Wed 09:40:03 AM 41.1828 -74.0203 33° Northeast 249 287 7,900 2,100 Climbing Boston Center
Wed 09:41:03 AM 41.2006 -73.9269 76° East 234 269 10,200 1,500 Climbing Boston Center
Wed 09:42:03 AM 41.2206 -73.8419 73° East 257 296 10,900 950 Climbing Boston Center
Wed 09:43:03 AM 41.2467 -73.7375 72° East 262 302 12,100 1,400 Climbing Boston Center
Wed 09:44:03 AM 41.2644 -73.6469 75° East 269 310 13,700 1,650 Climbing Boston Center
Wed 09:45:03 AM 41.3050 -73.5481 61° Northeast 275 316 15,400 1,450 Climbing Boston Center
Wed 09:46:03 AM 41.3578 -73.4800 44° Northeast 281 323 16,600 1,250 Climbing Boston Center
Wed 09:47:03 AM 41.4211 -73.3950 45° Northeast 292 336 17,900 1,250 Climbing Boston Center
Wed 09:48:03 AM 41.4717 -73.3294 44° Northeast 292 336 19,100 1,150 Climbing Boston Center
Wed 09:49:03 AM 41.5367 -73.2472 43° Northeast 292 336 20,200 1,050 Climbing Boston Center
Wed 09:50:03 AM 41.6244 -73.2425 North 277 319 21,200 1,000 Climbing Boston Center
Wed 09:51:03 AM 41.7139 -73.2522 355° North 291 335 22,200 1,050 Climbing Boston Center
Wed 09:52:03 AM 41.8033 -73.2589 357° North 303 349 23,300 1,100 Climbing Boston Center
Wed 09:53:03 AM 41.8889 -73.2656 357° North 308 354 24,400 850 Climbing Boston Center
Wed 09:54:03 AM 41.9742 -73.2722 357° North 308 354 25,000 300 Climbing Boston Center
Wed 09:55:03 AM 42.0639 -73.2761 358° North 308 354 25,000  Level Boston Center
Wed 09:56:03 AM 42.1475 -73.2297 22° Northeast 309 356 25,000  Level Boston Center
Wed 09:57:03 AM 42.2067 -73.1353 50° Northeast 308 354 25,000  Level Boston Center
Wed 09:58:03 AM 42.2697 -73.0378 49° Northeast 320 368 25,000  Level Boston Center
Wed 09:59:03 AM 42.3325 -72.9372 50° Northeast 335 386 25,000  Level Boston Center
Wed 10:00:03 AM 42.3997 -72.8336 49° Northeast 363 418 25,000  Level Boston Center
Wed 10:01:03 AM 42.4647 -72.7328 49° Northeast 357 411 25,000  Level Boston Center
Wed 10:02:03 AM 42.5231 -72.6428 49° Northeast 357 411 25,000  Level Boston Center
Wed 10:03:03 AM 42.5881 -72.5444 48° Northeast 357 411 25,000  Level Boston Center
Wed 10:04:03 AM 42.6608 -72.4458 45° Northeast 357 411 25,000  Level Boston Center
Wed 10:05:03 AM 42.7214 -72.3439 51° Northeast 357 411 25,000  Level Boston Center
Wed 10:06:03 AM 42.7817 -72.2422 51° Northeast 357 411 25,000 -450 Level Boston Center
Wed 10:07:03 AM 42.8439 -72.1372 51° Northeast 351 404 24,100 -750 Descending Boston Center
Wed 10:08:03 AM 42.9103 -72.0375 48° Northeast 351 404 23,500 -950 Descending Boston Center
Wed 10:09:03 AM 42.9725 -71.9378 50° Northeast 351 404 22,200 -1,400 Descending Boston Center
Wed 10:10:03 AM 43.0386 -71.8350 49° Northeast 351 404 20,700 -1,500 Descending Boston Center
Wed 10:11:03 AM 43.1025 -71.7319 50° Northeast 351 404 19,200 -1,400 Descending Boston Center
Wed 10:12:03 AM 43.1686 -71.6203 51° Northeast 351 404 17,900 -1,350 Descending Boston Center
Wed 10:13:03 AM 43.2261 -71.5283 49° Northeast 356 410 16,500 -1,500 Descending Boston Center
Wed 10:14:03 AM 43.2983 -71.4158 49° Northeast 356 410 14,900 -1,500 Descending Boston Center
Wed 10:15:03 AM 43.3536 -71.3236 50° Northeast 356 410 13,500 -1,500 Descending Boston Center
Wed 10:16:03 AM 43.4131 -71.2225 51° Northeast 348 400 11,900 -1,250 Descending Boston Center
Wed 10:17:03 AM 43.4639 -71.1042 59° Northeast 334 384 11,000 -450 Descending Boston Center
Wed 10:18:03 AM 43.4856 -71.0006 74° East 316 364 11,000 -700 Level Boston Center
Wed 10:19:03 AM 43.5131 -70.8797 73° East 300 345 9,600 -1,450 Descending Boston Center
Wed 10:20:03 AM 43.5328 -70.7933 72° East 275 316 8,100 -1,600 Descending Boston Center
Wed 10:21:03 AM 43.5581 -70.6867 72° East 263 303 6,400 -1,550 Descending Boston Center
Wed 10:22:03 AM 43.5778 -70.6058 71° East 263 303 5,000 -1,500 Descending Boston Center
Wed 10:23:03 AM 43.5928 -70.5050 78° East 241 277 3,400 -1,500 Descending Boston Center
Wed 10:24:03 AM 43.5936 -70.4247 89° East 230 265 2,000 -800 Descending Boston Center
Wed 10:25:03 AM 43.5919 -70.3331 91° East 230 265 1,800 -200 Descending Boston Center

Login

Don't have an account? Register now (free) for customized features, flight alerts, and more!